sensor_id;sensor_type;location;lat;lon;timestamp;P1;durP1;ratioP1;P2;durP2;ratioP2
58470;SDS011;44258;51.288;12.068;2023-05-07T00:00:50;19.83;;;10.20;;
58470;SDS011;44258;51.288;12.068;2023-05-07T00:03:17;16.55;;;10.15;;
58470;SDS011;44258;51.288;12.068;2023-05-07T00:05:44;17.98;;;10.60;;
58470;SDS011;44258;51.288;12.068;2023-05-07T00:08:11;17.58;;;10.45;;
58470;SDS011;44258;51.288;12.068;2023-05-07T00:10:39;19.55;;;10.40;;
58470;SDS011;44258;51.288;12.068;2023-05-07T00:13:07;18.63;;;9.27;;
58470;SDS011;44258;51.288;12.068;2023-05-07T00:15:33;15.75;;;9.23;;
58470;SDS011;44258;51.288;12.068;2023-05-07T00:18:01;17.75;;;8.60;;
58470;SDS011;44258;51.288;12.068;2023-05-07T00:20:28;16.15;;;8.40;;
58470;SDS011;44258;51.288;12.068;2023-05-07T00:22:56;18.20;;;8.82;;
58470;SDS011;44258;51.288;12.068;2023-05-07T00:25:23;14.27;;;8.23;;
58470;SDS011;44258;51.288;12.068;2023-05-07T00:27:50;17.70;;;9.05;;
58470;SDS011;44258;51.288;12.068;2023-05-07T00:30:16;19.58;;;10.07;;
58470;SDS011;44258;51.288;12.068;2023-05-07T00:32:43;18.73;;;10.55;;
58470;SDS011;44258;51.288;12.068;2023-05-07T00:35:11;20.05;;;10.27;;
58470;SDS011;44258;51.288;12.068;2023-05-07T00:37:38;16.30;;;9.57;;
58470;SDS011;44258;51.288;12.068;2023-05-07T00:40:05;18.70;;;9.43;;
58470;SDS011;44258;51.288;12.068;2023-05-07T00:42:33;20.58;;;10.32;;
58470;SDS011;44258;51.288;12.068;2023-05-07T00:44:59;18.38;;;9.75;;
58470;SDS011;44258;51.288;12.068;2023-05-07T00:47:26;15.75;;;8.20;;
58470;SDS011;44258;51.288;12.068;2023-05-07T00:49:53;15.02;;;7.45;;
58470;SDS011;44258;51.288;12.068;2023-05-07T00:52:21;18.33;;;9.35;;
58470;SDS011;44258;51.288;12.068;2023-05-07T00:54:51;17.45;;;8.13;;
58470;SDS011;44258;51.288;12.068;2023-05-07T00:57:19;18.92;;;8.73;;
58470;SDS011;44258;51.288;12.068;2023-05-07T00:59:47;15.18;;;7.70;;
58470;SDS011;44258;51.288;12.068;2023-05-07T01:02:14;17.02;;;8.98;;
58470;SDS011;44258;51.288;12.068;2023-05-07T01:04:41;16.67;;;7.75;;
58470;SDS011;44258;51.288;12.068;2023-05-07T01:07:08;16.75;;;8.40;;
58470;SDS011;44258;51.288;12.068;2023-05-07T01:09:37;16.48;;;8.43;;
58470;SDS011;44258;51.288;12.068;2023-05-07T01:12:05;15.18;;;8.23;;
58470;SDS011;44258;51.288;12.068;2023-05-07T01:14:33;17.45;;;8.95;;
58470;SDS011;44258;51.288;12.068;2023-05-07T01:17:00;15.90;;;8.15;;
58470;SDS011;44258;51.288;12.068;2023-05-07T01:19:28;16.27;;;8.43;;
58470;SDS011;44258;51.288;12.068;2023-05-07T01:21:56;16.55;;;7.55;;
58470;SDS011;44258;51.288;12.068;2023-05-07T01:24:31;14.07;;;7.80;;
58470;SDS011;44258;51.288;12.068;2023-05-07T01:26:58;18.05;;;8.10;;
58470;SDS011;44258;51.288;12.068;2023-05-07T01:29:24;14.68;;;6.78;;
58470;SDS011;44258;51.288;12.068;2023-05-07T01:31:51;15.52;;;8.15;;
58470;SDS011;44258;51.288;12.068;2023-05-07T01:34:18;14.43;;;7.43;;
58470;SDS011;44258;51.288;12.068;2023-05-07T01:36:48;16.88;;;7.63;;
58470;SDS011;44258;51.288;12.068;2023-05-07T01:39:15;15.23;;;7.65;;
58470;SDS011;44258;51.288;12.068;2023-05-07T01:41:43;14.00;;;7.15;;
58470;SDS011;44258;51.288;12.068;2023-05-07T01:44:11;14.45;;;7.47;;
58470;SDS011;44258;51.288;12.068;2023-05-07T01:46:39;14.18;;;7.30;;
58470;SDS011;44258;51.288;12.068;2023-05-07T01:49:06;14.68;;;7.65;;
58470;SDS011;44258;51.288;12.068;2023-05-07T01:51:33;15.00;;;7.55;;
58470;SDS011;44258;51.288;12.068;2023-05-07T01:54:01;15.18;;;8.15;;
58470;SDS011;44258;51.288;12.068;2023-05-07T01:56:28;13.77;;;7.07;;
58470;SDS011;44258;51.288;12.068;2023-05-07T01:58:56;13.95;;;7.32;;
58470;SDS011;44258;51.288;12.068;2023-05-07T02:01:23;15.82;;;7.47;;
58470;SDS011;44258;51.288;12.068;2023-05-07T02:03:49;15.43;;;8.13;;
58470;SDS011;44258;51.288;12.068;2023-05-07T02:06:16;15.15;;;7.80;;
58470;SDS011;44258;51.288;12.068;2023-05-07T02:08:45;16.08;;;8.30;;
58470;SDS011;44258;51.288;12.068;2023-05-07T02:11:11;16.38;;;8.15;;
58470;SDS011;44258;51.288;12.068;2023-05-07T02:13:38;15.38;;;8.52;;
58470;SDS011;44258;51.288;12.068;2023-05-07T02:16:07;15.65;;;8.07;;
58470;SDS011;44258;51.288;12.068;2023-05-07T02:18:37;17.83;;;8.70;;
58470;SDS011;44258;51.288;12.068;2023-05-07T02:21:03;16.38;;;8.35;;
58470;SDS011;44258;51.288;12.068;2023-05-07T02:23:30;16.20;;;8.55;;
58470;SDS011;44258;51.288;12.068;2023-05-07T02:25:56;17.42;;;8.45;;
58470;SDS011;44258;51.288;12.068;2023-05-07T02:28:26;16.08;;;8.63;;
58470;SDS011;44258;51.288;12.068;2023-05-07T02:30:52;17.58;;;8.70;;
58470;SDS011;44258;51.288;12.068;2023-05-07T02:33:20;18.58;;;8.85;;
58470;SDS011;44258;51.288;12.068;2023-05-07T02:35:47;21.85;;;10.10;;
58470;SDS011;44258;51.288;12.068;2023-05-07T02:38:17;19.73;;;10.15;;
58470;SDS011;44258;51.288;12.068;2023-05-07T02:40:43;20.75;;;9.52;;
58470;SDS011;44258;51.288;12.068;2023-05-07T02:43:10;20.15;;;10.10;;
58470;SDS011;44258;51.288;12.068;2023-05-07T02:45:36;19.17;;;9.80;;
58470;SDS011;44258;51.288;12.068;2023-05-07T02:48:04;18.80;;;9.65;;
58470;SDS011;44258;51.288;12.068;2023-05-07T02:50:33;15.85;;;9.00;;
58470;SDS011;44258;51.288;12.068;2023-05-07T02:52:59;16.92;;;9.20;;
58470;SDS011;44258;51.288;12.068;2023-05-07T02:55:26;19.13;;;10.02;;
58470;SDS011;44258;51.288;12.068;2023-05-07T02:57:52;20.08;;;9.18;;
58470;SDS011;44258;51.288;12.068;2023-05-07T03:00:19;19.05;;;10.40;;
58470;SDS011;44258;51.288;12.068;2023-05-07T03:02:47;23.42;;;11.35;;
58470;SDS011;44258;51.288;12.068;2023-05-07T03:05:13;20.30;;;10.45;;
58470;SDS011;44258;51.288;12.068;2023-05-07T03:07:41;22.15;;;11.38;;
58470;SDS011;44258;51.288;12.068;2023-05-07T03:10:11;22.67;;;11.40;;
58470;SDS011;44258;51.288;12.068;2023-05-07T03:12:38;20.30;;;11.18;;
58470;SDS011;44258;51.288;12.068;2023-05-07T03:15:05;20.85;;;10.75;;
58470;SDS011;44258;51.288;12.068;2023-05-07T03:17:33;19.95;;;11.07;;
58470;SDS011;44258;51.288;12.068;2023-05-07T03:19:59;21.58;;;11.15;;
58470;SDS011;44258;51.288;12.068;2023-05-07T03:22:26;21.85;;;11.73;;
58470;SDS011;44258;51.288;12.068;2023-05-07T03:24:54;22.35;;;11.52;;
58470;SDS011;44258;51.288;12.068;2023-05-07T03:27:20;22.23;;;11.55;;
58470;SDS011;44258;51.288;12.068;2023-05-07T03:29:47;20.58;;;11.68;;
58470;SDS011;44258;51.288;12.068;2023-05-07T03:32:13;23.38;;;12.48;;
58470;SDS011;44258;51.288;12.068;2023-05-07T03:34:40;22.67;;;11.55;;
58470;SDS011;44258;51.288;12.068;2023-05-07T03:37:07;22.50;;;11.88;;
58470;SDS011;44258;51.288;12.068;2023-05-07T03:39:33;21.77;;;12.25;;
58470;SDS011;44258;51.288;12.068;2023-05-07T03:42:01;23.20;;;12.88;;
58470;SDS011;44258;51.288;12.068;2023-05-07T03:44:32;24.13;;;11.30;;
58470;SDS011;44258;51.288;12.068;2023-05-07T03:46:59;25.25;;;12.45;;
58470;SDS011;44258;51.288;12.068;2023-05-07T03:49:25;24.33;;;12.73;;
58470;SDS011;44258;51.288;12.068;2023-05-07T03:51:52;21.00;;;11.43;;
58470;SDS011;44258;51.288;12.068;2023-05-07T03:54:19;22.08;;;11.68;;
58470;SDS011;44258;51.288;12.068;2023-05-07T03:56:45;20.83;;;11.05;;
58470;SDS011;44258;51.288;12.068;2023-05-07T03:59:14;22.88;;;11.68;;
58470;SDS011;44258;51.288;12.068;2023-05-07T04:01:41;21.92;;;11.43;;
58470;SDS011;44258;51.288;12.068;2023-05-07T04:04:08;21.15;;;11.48;;
58470;SDS011;44258;51.288;12.068;2023-05-07T04:06:35;21.23;;;11.75;;
58470;SDS011;44258;51.288;12.068;2023-05-07T04:09:02;23.33;;;12.50;;
58470;SDS011;44258;51.288;12.068;2023-05-07T04:11:32;23.48;;;12.23;;
58470;SDS011;44258;51.288;12.068;2023-05-07T04:13:59;22.77;;;12.10;;
58470;SDS011;44258;51.288;12.068;2023-05-07T04:16:27;23.10;;;12.52;;
58470;SDS011;44258;51.288;12.068;2023-05-07T04:18:53;23.08;;;12.13;;
58470;SDS011;44258;51.288;12.068;2023-05-07T04:21:20;24.40;;;12.10;;
58470;SDS011;44258;51.288;12.068;2023-05-07T04:23:47;24.77;;;13.68;;
58470;SDS011;44258;51.288;12.068;2023-05-07T04:26:14;23.60;;;12.77;;
58470;SDS011;44258;51.288;12.068;2023-05-07T04:28:41;21.90;;;11.73;;
58470;SDS011;44258;51.288;12.068;2023-05-07T04:31:08;23.15;;;12.27;;
58470;SDS011;44258;51.288;12.068;2023-05-07T04:33:36;23.08;;;12.10;;
58470;SDS011;44258;51.288;12.068;2023-05-07T04:36:03;23.83;;;11.70;;
58470;SDS011;44258;51.288;12.068;2023-05-07T04:38:30;26.98;;;13.40;;
58470;SDS011;44258;51.288;12.068;2023-05-07T04:40:58;22.15;;;11.88;;
58470;SDS011;44258;51.288;12.068;2023-05-07T04:43:28;21.60;;;12.18;;
58470;SDS011;44258;51.288;12.068;2023-05-07T04:45:55;21.23;;;11.85;;
58470;SDS011;44258;51.288;12.068;2023-05-07T04:48:22;22.70;;;12.95;;
58470;SDS011;44258;51.288;12.068;2023-05-07T04:50:50;23.92;;;12.95;;
58470;SDS011;44258;51.288;12.068;2023-05-07T04:53:16;24.73;;;13.55;;
58470;SDS011;44258;51.288;12.068;2023-05-07T04:55:46;22.73;;;12.82;;
58470;SDS011;44258;51.288;12.068;2023-05-07T04:58:13;25.42;;;13.57;;
58470;SDS011;44258;51.288;12.068;2023-05-07T05:00:39;21.75;;;12.45;;
58470;SDS011;44258;51.288;12.068;2023-05-07T05:03:07;22.58;;;13.05;;
58470;SDS011;44258;51.288;12.068;2023-05-07T05:05:34;23.80;;;12.25;;
58470;SDS011;44258;51.288;12.068;2023-05-07T05:08:03;21.17;;;11.52;;
58470;SDS011;44258;51.288;12.068;2023-05-07T05:10:30;22.17;;;11.50;;
58470;SDS011;44258;51.288;12.068;2023-05-07T05:12:57;24.45;;;13.02;;
58470;SDS011;44258;51.288;12.068;2023-05-07T05:15:24;22.95;;;12.13;;
58470;SDS011;44258;51.288;12.068;2023-05-07T05:17:50;25.52;;;13.27;;
58470;SDS011;44258;51.288;12.068;2023-05-07T05:20:17;22.73;;;11.75;;
58470;SDS011;44258;51.288;12.068;2023-05-07T05:22:43;22.85;;;12.15;;
58470;SDS011;44258;51.288;12.068;2023-05-07T05:25:11;23.50;;;12.27;;
58470;SDS011;44258;51.288;12.068;2023-05-07T05:27:38;23.13;;;12.02;;
58470;SDS011;44258;51.288;12.068;2023-05-07T05:30:05;25.63;;;13.10;;
58470;SDS011;44258;51.288;12.068;2023-05-07T05:32:34;22.73;;;12.35;;
58470;SDS011;44258;51.288;12.068;2023-05-07T05:35:00;20.13;;;10.63;;
58470;SDS011;44258;51.288;12.068;2023-05-07T05:37:26;21.58;;;11.88;;
58470;SDS011;44258;51.288;12.068;2023-05-07T05:39:55;22.13;;;12.38;;
58470;SDS011;44258;51.288;12.068;2023-05-07T05:42:23;21.67;;;11.95;;
58470;SDS011;44258;51.288;12.068;2023-05-07T05:44:49;20.20;;;11.05;;
58470;SDS011;44258;51.288;12.068;2023-05-07T05:47:16;21.05;;;11.18;;
58470;SDS011;44258;51.288;12.068;2023-05-07T05:49:42;23.15;;;11.98;;
58470;SDS011;44258;51.288;12.068;2023-05-07T05:52:13;20.13;;;11.73;;
58470;SDS011;44258;51.288;12.068;2023-05-07T05:54:41;20.20;;;10.90;;
58470;SDS011;44258;51.288;12.068;2023-05-07T05:57:08;21.27;;;11.55;;
58470;SDS011;44258;51.288;12.068;2023-05-07T05:59:44;21.38;;;12.27;;
58470;SDS011;44258;51.288;12.068;2023-05-07T06:02:12;21.95;;;11.43;;
58470;SDS011;44258;51.288;12.068;2023-05-07T06:04:39;19.50;;;10.88;;
58470;SDS011;44258;51.288;12.068;2023-05-07T06:07:05;21.42;;;11.77;;
58470;SDS011;44258;51.288;12.068;2023-05-07T06:09:32;18.17;;;9.57;;
58470;SDS011;44258;51.288;12.068;2023-05-07T06:11:59;21.52;;;10.52;;
58470;SDS011;44258;51.288;12.068;2023-05-07T06:14:26;18.60;;;9.98;;
58470;SDS011;44258;51.288;12.068;2023-05-07T06:16:54;19.52;;;9.88;;
58470;SDS011;44258;51.288;12.068;2023-05-07T06:19:21;17.67;;;9.75;;
58470;SDS011;44258;51.288;12.068;2023-05-07T06:21:49;19.83;;;9.00;;
58470;SDS011;44258;51.288;12.068;2023-05-07T06:24:15;17.90;;;8.98;;
58470;SDS011;44258;51.288;12.068;2023-05-07T06:26:42;20.98;;;9.98;;
58470;SDS011;44258;51.288;12.068;2023-05-07T06:29:09;17.83;;;9.32;;
58470;SDS011;44258;51.288;12.068;2023-05-07T06:31:36;18.30;;;10.15;;
58470;SDS011;44258;51.288;12.068;2023-05-07T06:34:04;19.17;;;10.60;;
58470;SDS011;44258;51.288;12.068;2023-05-07T06:36:31;18.92;;;9.75;;
58470;SDS011;44258;51.288;12.068;2023-05-07T06:38:57;20.17;;;10.23;;
58470;SDS011;44258;51.288;12.068;2023-05-07T06:41:24;17.88;;;9.10;;
58470;SDS011;44258;51.288;12.068;2023-05-07T06:43:50;19.42;;;10.75;;
58470;SDS011;44258;51.288;12.068;2023-05-07T06:46:17;19.95;;;11.27;;
58470;SDS011;44258;51.288;12.068;2023-05-07T06:48:44;19.17;;;10.23;;
58470;SDS011;44258;51.288;12.068;2023-05-07T06:51:11;18.58;;;10.65;;
58470;SDS011;44258;51.288;12.068;2023-05-07T06:53:42;17.23;;;9.15;;
58470;SDS011;44258;51.288;12.068;2023-05-07T06:56:09;17.48;;;8.95;;
58470;SDS011;44258;51.288;12.068;2023-05-07T06:58:37;17.25;;;9.25;;
58470;SDS011;44258;51.288;12.068;2023-05-07T07:01:05;18.60;;;10.15;;
58470;SDS011;44258;51.288;12.068;2023-05-07T07:03:32;18.08;;;9.63;;
58470;SDS011;44258;51.288;12.068;2023-05-07T07:05:59;16.38;;;9.27;;
58470;SDS011;44258;51.288;12.068;2023-05-07T07:08:28;18.92;;;10.25;;
58470;SDS011;44258;51.288;12.068;2023-05-07T07:10:55;19.13;;;10.15;;
58470;SDS011;44258;51.288;12.068;2023-05-07T07:13:22;18.13;;;9.52;;
58470;SDS011;44258;51.288;12.068;2023-05-07T07:15:48;18.85;;;10.32;;
58470;SDS011;44258;51.288;12.068;2023-05-07T07:18:15;18.15;;;10.13;;
58470;SDS011;44258;51.288;12.068;2023-05-07T07:20:41;17.50;;;9.45;;
58470;SDS011;44258;51.288;12.068;2023-05-07T07:23:13;19.42;;;10.07;;
58470;SDS011;44258;51.288;12.068;2023-05-07T07:25:45;18.13;;;9.98;;
58470;SDS011;44258;51.288;12.068;2023-05-07T07:28:12;16.95;;;9.20;;
58470;SDS011;44258;51.288;12.068;2023-05-07T07:30:38;15.80;;;9.00;;
58470;SDS011;44258;51.288;12.068;2023-05-07T07:33:06;16.35;;;8.55;;
58470;SDS011;44258;51.288;12.068;2023-05-07T07:35:33;16.92;;;9.10;;
58470;SDS011;44258;51.288;12.068;2023-05-07T07:38:00;15.60;;;8.75;;
58470;SDS011;44258;51.288;12.068;2023-05-07T07:40:27;18.50;;;8.63;;
58470;SDS011;44258;51.288;12.068;2023-05-07T07:42:56;12.88;;;7.28;;
58470;SDS011;44258;51.288;12.068;2023-05-07T07:45:26;15.80;;;8.38;;
58470;SDS011;44258;51.288;12.068;2023-05-07T07:47:53;14.35;;;8.20;;
58470;SDS011;44258;51.288;12.068;2023-05-07T07:50:23;17.77;;;9.68;;
58470;SDS011;44258;51.288;12.068;2023-05-07T07:52:50;13.10;;;7.55;;
58470;SDS011;44258;51.288;12.068;2023-05-07T07:55:19;17.42;;;9.07;;
58470;SDS011;44258;51.288;12.068;2023-05-07T07:57:48;15.40;;;8.73;;
58470;SDS011;44258;51.288;12.068;2023-05-07T08:00:17;17.38;;;8.80;;
58470;SDS011;44258;51.288;12.068;2023-05-07T08:02:46;13.25;;;7.55;;
58470;SDS011;44258;51.288;12.068;2023-05-07T08:05:13;13.45;;;7.63;;
58470;SDS011;44258;51.288;12.068;2023-05-07T08:07:40;15.07;;;7.55;;
58470;SDS011;44258;51.288;12.068;2023-05-07T08:10:07;14.02;;;7.45;;
58470;SDS011;44258;51.288;12.068;2023-05-07T08:12:35;13.10;;;7.50;;
58470;SDS011;44258;51.288;12.068;2023-05-07T08:15:01;12.63;;;6.85;;
58470;SDS011;44258;51.288;12.068;2023-05-07T08:17:29;12.80;;;7.00;;
58470;SDS011;44258;51.288;12.068;2023-05-07T08:19:56;13.30;;;8.05;;
58470;SDS011;44258;51.288;12.068;2023-05-07T08:22:22;13.43;;;8.10;;
58470;SDS011;44258;51.288;12.068;2023-05-07T08:24:49;13.18;;;7.55;;
58470;SDS011;44258;51.288;12.068;2023-05-07T08:27:16;12.68;;;7.03;;
58470;SDS011;44258;51.288;12.068;2023-05-07T08:29:43;13.30;;;6.82;;
58470;SDS011;44258;51.288;12.068;2023-05-07T08:32:12;11.57;;;6.28;;
58470;SDS011;44258;51.288;12.068;2023-05-07T08:34:43;11.88;;;7.40;;
58470;SDS011;44258;51.288;12.068;2023-05-07T08:37:09;13.43;;;8.30;;
58470;SDS011;44258;51.288;12.068;2023-05-07T08:39:36;13.35;;;6.80;;
58470;SDS011;44258;51.288;12.068;2023-05-07T08:42:03;9.15;;;4.47;;
58470;SDS011;44258;51.288;12.068;2023-05-07T08:44:32;12.70;;;7.85;;
58470;SDS011;44258;51.288;12.068;2023-05-07T08:47:00;11.73;;;7.40;;
58470;SDS011;44258;51.288;12.068;2023-05-07T08:49:27;14.20;;;8.90;;
58470;SDS011;44258;51.288;12.068;2023-05-07T08:51:56;13.98;;;8.77;;
58470;SDS011;44258;51.288;12.068;2023-05-07T08:54:23;15.35;;;8.77;;
58470;SDS011;44258;51.288;12.068;2023-05-07T08:56:52;15.10;;;9.18;;
58470;SDS011;44258;51.288;12.068;2023-05-07T08:59:19;14.23;;;9.05;;
58470;SDS011;44258;51.288;12.068;2023-05-07T09:01:50;13.75;;;8.23;;
58470;SDS011;44258;51.288;12.068;2023-05-07T09:04:16;12.23;;;7.45;;
58470;SDS011;44258;51.288;12.068;2023-05-07T09:06:43;13.13;;;7.70;;
58470;SDS011;44258;51.288;12.068;2023-05-07T09:09:11;13.35;;;7.72;;
58470;SDS011;44258;51.288;12.068;2023-05-07T09:11:43;12.50;;;7.68;;
58470;SDS011;44258;51.288;12.068;2023-05-07T09:14:10;12.40;;;7.55;;
58470;SDS011;44258;51.288;12.068;2023-05-07T09:16:37;12.45;;;7.35;;
58470;SDS011;44258;51.288;12.068;2023-05-07T09:19:03;11.10;;;6.85;;
58470;SDS011;44258;51.288;12.068;2023-05-07T09:21:30;12.43;;;7.70;;
58470;SDS011;44258;51.288;12.068;2023-05-07T09:23:57;13.48;;;8.10;;
58470;SDS011;44258;51.288;12.068;2023-05-07T09:26:25;12.85;;;7.75;;
58470;SDS011;44258;51.288;12.068;2023-05-07T09:28:53;12.15;;;7.68;;
58470;SDS011;44258;51.288;12.068;2023-05-07T09:31:25;12.90;;;7.57;;
58470;SDS011;44258;51.288;12.068;2023-05-07T09:33:52;11.82;;;7.50;;
58470;SDS011;44258;51.288;12.068;2023-05-07T09:36:20;13.02;;;7.95;;
58470;SDS011;44258;51.288;12.068;2023-05-07T09:38:47;12.88;;;7.72;;
58470;SDS011;44258;51.288;12.068;2023-05-07T09:41:14;13.73;;;6.68;;
58470;SDS011;44258;51.288;12.068;2023-05-07T09:43:42;11.00;;;7.45;;
58470;SDS011;44258;51.288;12.068;2023-05-07T09:46:11;11.40;;;5.88;;
58470;SDS011;44258;51.288;12.068;2023-05-07T09:48:42;13.18;;;7.25;;
58470;SDS011;44258;51.288;12.068;2023-05-07T09:51:18;11.63;;;6.50;;
58470;SDS011;44258;51.288;12.068;2023-05-07T09:53:52;12.27;;;7.63;;
58470;SDS011;44258;51.288;12.068;2023-05-07T09:56:19;12.60;;;8.10;;
58470;SDS011;44258;51.288;12.068;2023-05-07T09:58:47;12.88;;;6.88;;
58470;SDS011;44258;51.288;12.068;2023-05-07T10:01:16;13.07;;;7.97;;
58470;SDS011;44258;51.288;12.068;2023-05-07T10:03:44;12.35;;;7.72;;
58470;SDS011;44258;51.288;12.068;2023-05-07T10:06:12;12.48;;;7.32;;
58470;SDS011;44258;51.288;12.068;2023-05-07T10:08:40;11.60;;;7.63;;
58470;SDS011;44258;51.288;12.068;2023-05-07T10:11:14;11.77;;;7.28;;
58470;SDS011;44258;51.288;12.068;2023-05-07T10:13:42;13.10;;;7.78;;
58470;SDS011;44258;51.288;12.068;2023-05-07T10:16:11;11.27;;;6.88;;
58470;SDS011;44258;51.288;12.068;2023-05-07T10:18:38;12.63;;;7.70;;
58470;SDS011;44258;51.288;12.068;2023-05-07T10:21:07;11.27;;;6.88;;
58470;SDS011;44258;51.288;12.068;2023-05-07T10:23:37;12.07;;;7.28;;
58470;SDS011;44258;51.288;12.068;2023-05-07T10:26:06;11.85;;;7.15;;
58470;SDS011;44258;51.288;12.068;2023-05-07T10:28:36;10.98;;;6.97;;
58470;SDS011;44258;51.288;12.068;2023-05-07T10:31:08;14.57;;;7.72;;
58470;SDS011;44258;51.288;12.068;2023-05-07T10:33:50;12.15;;;7.18;;
58470;SDS011;44258;51.288;12.068;2023-05-07T10:36:19;11.40;;;7.13;;
58470;SDS011;44258;51.288;12.068;2023-05-07T10:38:47;13.05;;;6.60;;
58470;SDS011;44258;51.288;12.068;2023-05-07T10:41:13;11.90;;;6.82;;
58470;SDS011;44258;51.288;12.068;2023-05-07T10:43:42;10.98;;;6.72;;
58470;SDS011;44258;51.288;12.068;2023-05-07T10:46:10;11.00;;;6.88;;
58470;SDS011;44258;51.288;12.068;2023-05-07T10:51:37;11.10;;;6.50;;
58470;SDS011;44258;51.288;12.068;2023-05-07T10:54:21;13.02;;;7.82;;
58470;SDS011;44258;51.288;12.068;2023-05-07T10:56:49;14.05;;;8.98;;
58470;SDS011;44258;51.288;12.068;2023-05-07T10:59:42;11.50;;;7.57;;
58470;SDS011;44258;51.288;12.068;2023-05-07T11:02:10;10.30;;;6.75;;
58470;SDS011;44258;51.288;12.068;2023-05-07T11:04:39;11.15;;;6.50;;
58470;SDS011;44258;51.288;12.068;2023-05-07T11:07:25;10.05;;;6.95;;
58470;SDS011;44258;51.288;12.068;2023-05-07T11:10:05;10.98;;;6.40;;
58470;SDS011;44258;51.288;12.068;2023-05-07T11:12:52;9.88;;;6.03;;
58470;SDS011;44258;51.288;12.068;2023-05-07T11:18:08;10.63;;;5.20;;
58470;SDS011;44258;51.288;12.068;2023-05-07T11:20:45;10.25;;;5.90;;
58470;SDS011;44258;51.288;12.068;2023-05-07T11:26:16;9.98;;;5.55;;
58470;SDS011;44258;51.288;12.068;2023-05-07T11:28:43;8.85;;;5.05;;
58470;SDS011;44258;51.288;12.068;2023-05-07T11:31:10;10.15;;;4.88;;
58470;SDS011;44258;51.288;12.068;2023-05-07T11:33:38;10.25;;;5.15;;
58470;SDS011;44258;51.288;12.068;2023-05-07T11:36:08;9.95;;;5.88;;
58470;SDS011;44258;51.288;12.068;2023-05-07T11:38:35;9.80;;;5.30;;
58470;SDS011;44258;51.288;12.068;2023-05-07T11:41:02;9.23;;;5.68;;
58470;SDS011;44258;51.288;12.068;2023-05-07T11:43:30;9.23;;;5.22;;
58470;SDS011;44258;51.288;12.068;2023-05-07T11:46:04;9.27;;;5.47;;
58470;SDS011;44258;51.288;12.068;2023-05-07T11:48:32;9.20;;;5.55;;
58470;SDS011;44258;51.288;12.068;2023-05-07T11:51:01;9.68;;;5.43;;
58470;SDS011;44258;51.288;12.068;2023-05-07T11:53:35;8.80;;;5.00;;
58470;SDS011;44258;51.288;12.068;2023-05-07T11:56:05;8.55;;;4.97;;
58470;SDS011;44258;51.288;12.068;2023-05-07T11:58:33;9.23;;;5.28;;
58470;SDS011;44258;51.288;12.068;2023-05-07T12:01:01;10.82;;;6.38;;
58470;SDS011;44258;51.288;12.068;2023-05-07T12:03:28;10.35;;;5.70;;
58470;SDS011;44258;51.288;12.068;2023-05-07T12:05:59;9.40;;;5.45;;
58470;SDS011;44258;51.288;12.068;2023-05-07T12:08:27;9.52;;;5.30;;
58470;SDS011;44258;51.288;12.068;2023-05-07T12:10:53;9.25;;;5.40;;
58470;SDS011;44258;51.288;12.068;2023-05-07T12:13:21;10.13;;;5.97;;
58470;SDS011;44258;51.288;12.068;2023-05-07T12:15:50;10.23;;;5.90;;
58470;SDS011;44258;51.288;12.068;2023-05-07T12:18:17;9.90;;;6.00;;
58470;SDS011;44258;51.288;12.068;2023-05-07T12:20:45;8.88;;;4.82;;
58470;SDS011;44258;51.288;12.068;2023-05-07T12:23:14;8.85;;;5.30;;
58470;SDS011;44258;51.288;12.068;2023-05-07T12:25:42;9.88;;;4.65;;
58470;SDS011;44258;51.288;12.068;2023-05-07T12:28:12;9.10;;;5.20;;
58470;SDS011;44258;51.288;12.068;2023-05-07T12:30:40;11.10;;;5.80;;
58470;SDS011;44258;51.288;12.068;2023-05-07T12:33:08;11.27;;;5.97;;
58470;SDS011;44258;51.288;12.068;2023-05-07T12:35:36;9.43;;;5.60;;
58470;SDS011;44258;51.288;12.068;2023-05-07T12:38:07;9.85;;;5.88;;
58470;SDS011;44258;51.288;12.068;2023-05-07T12:40:39;10.80;;;5.68;;
58470;SDS011;44258;51.288;12.068;2023-05-07T12:43:07;10.52;;;5.65;;
58470;SDS011;44258;51.288;12.068;2023-05-07T12:45:37;10.85;;;6.30;;
58470;SDS011;44258;51.288;12.068;2023-05-07T12:48:04;10.75;;;6.85;;
58470;SDS011;44258;51.288;12.068;2023-05-07T12:50:31;10.60;;;5.85;;
58470;SDS011;44258;51.288;12.068;2023-05-07T12:52:59;10.50;;;5.75;;
58470;SDS011;44258;51.288;12.068;2023-05-07T12:55:25;10.57;;;5.95;;
58470;SDS011;44258;51.288;12.068;2023-05-07T12:57:53;11.68;;;6.07;;
58470;SDS011;44258;51.288;12.068;2023-05-07T13:00:32;9.65;;;5.55;;
58470;SDS011;44258;51.288;12.068;2023-05-07T13:02:59;9.27;;;4.10;;
58470;SDS011;44258;51.288;12.068;2023-05-07T13:05:26;9.95;;;5.43;;
58470;SDS011;44258;51.288;12.068;2023-05-07T13:07:53;14.73;;;6.32;;
58470;SDS011;44258;51.288;12.068;2023-05-07T13:10:21;11.93;;;6.28;;
58470;SDS011;44258;51.288;12.068;2023-05-07T13:12:48;12.43;;;6.68;;
58470;SDS011;44258;51.288;12.068;2023-05-07T13:15:16;11.02;;;6.70;;
58470;SDS011;44258;51.288;12.068;2023-05-07T13:17:43;16.65;;;6.55;;
58470;SDS011;44258;51.288;12.068;2023-05-07T13:20:10;10.63;;;5.40;;
58470;SDS011;44258;51.288;12.068;2023-05-07T13:22:37;10.85;;;6.45;;
58470;SDS011;44258;51.288;12.068;2023-05-07T13:25:14;8.93;;;4.38;;
58470;SDS011;44258;51.288;12.068;2023-05-07T13:27:41;10.45;;;5.22;;
58470;SDS011;44258;51.288;12.068;2023-05-07T13:30:08;10.48;;;5.50;;
58470;SDS011;44258;51.288;12.068;2023-05-07T13:32:36;12.07;;;6.07;;
58470;SDS011;44258;51.288;12.068;2023-05-07T13:35:06;8.35;;;4.57;;
58470;SDS011;44258;51.288;12.068;2023-05-07T13:37:33;10.60;;;5.43;;
58470;SDS011;44258;51.288;12.068;2023-05-07T13:40:00;10.82;;;5.82;;
58470;SDS011;44258;51.288;12.068;2023-05-07T13:42:26;11.07;;;6.57;;
58470;SDS011;44258;51.288;12.068;2023-05-07T13:44:53;10.68;;;5.72;;
58470;SDS011;44258;51.288;12.068;2023-05-07T13:47:22;10.38;;;6.05;;
58470;SDS011;44258;51.288;12.068;2023-05-07T13:49:50;11.40;;;6.45;;
58470;SDS011;44258;51.288;12.068;2023-05-07T13:52:17;10.93;;;6.47;;
58470;SDS011;44258;51.288;12.068;2023-05-07T13:54:46;11.15;;;5.80;;
58470;SDS011;44258;51.288;12.068;2023-05-07T13:57:12;11.77;;;6.07;;
58470;SDS011;44258;51.288;12.068;2023-05-07T13:59:40;9.77;;;6.03;;
58470;SDS011;44258;51.288;12.068;2023-05-07T14:02:07;14.90;;;7.10;;
58470;SDS011;44258;51.288;12.068;2023-05-07T14:04:40;11.23;;;5.75;;
58470;SDS011;44258;51.288;12.068;2023-05-07T14:07:08;10.10;;;6.10;;
58470;SDS011;44258;51.288;12.068;2023-05-07T14:09:35;9.77;;;5.53;;
58470;SDS011;44258;51.288;12.068;2023-05-07T14:12:05;10.30;;;5.82;;
58470;SDS011;44258;51.288;12.068;2023-05-07T14:14:32;9.88;;;5.50;;
58470;SDS011;44258;51.288;12.068;2023-05-07T14:16:58;10.27;;;5.90;;
58470;SDS011;44258;51.288;12.068;2023-05-07T14:19:25;10.85;;;6.43;;
58470;SDS011;44258;51.288;12.068;2023-05-07T14:21:52;9.45;;;4.82;;
58470;SDS011;44258;51.288;12.068;2023-05-07T14:24:20;14.73;;;8.95;;
58470;SDS011;44258;51.288;12.068;2023-05-07T14:26:47;12.73;;;6.50;;
58470;SDS011;44258;51.288;12.068;2023-05-07T14:29:13;12.38;;;6.75;;
58470;SDS011;44258;51.288;12.068;2023-05-07T14:31:43;10.85;;;4.30;;